createdAt,value
2023-11-09T00:02:12.797Z,1.70
2023-11-09T00:04:39.485Z,2.95
2023-11-09T00:07:06.115Z,2.20
2023-11-09T00:09:32.538Z,2.00
2023-11-09T00:11:59.167Z,1.58
2023-11-09T00:14:25.676Z,2.65
2023-11-09T00:16:52.206Z,2.85
2023-11-09T00:19:18.747Z,2.38
2023-11-09T00:21:45.737Z,2.47
2023-11-09T00:24:12.496Z,2.67
2023-11-09T00:26:42.883Z,1.20
2023-11-09T00:29:09.315Z,1.73
2023-11-09T00:31:35.705Z,1.88
2023-11-09T00:34:04.430Z,2.30
2023-11-09T00:36:30.925Z,1.40
2023-11-09T00:38:57.345Z,5.22
2023-11-09T00:41:24.996Z,1.77
2023-11-09T00:43:57.122Z,1.75
2023-11-09T00:46:23.872Z,3.08
2023-11-09T00:48:50.393Z,2.65
2023-11-09T00:51:19.265Z,2.25
2023-11-09T00:53:45.870Z,2.63
2023-11-09T00:56:12.338Z,1.92
2023-11-09T00:58:38.743Z,1.58
2023-11-09T01:01:05.396Z,1.90
2023-11-09T01:03:32.909Z,2.22
2023-11-09T01:06:05.484Z,1.88
2023-11-09T01:08:32.029Z,1.67
2023-11-09T01:10:58.428Z,1.65
2023-11-09T01:13:24.891Z,1.58
2023-11-09T01:15:51.431Z,1.48
2023-11-09T01:18:18.300Z,2.85
2023-11-09T01:20:44.791Z,2.15
2023-11-09T01:23:13.076Z,1.88
2023-11-09T01:25:39.767Z,2.35
2023-11-09T01:28:06.388Z,1.40
2023-11-09T01:30:32.998Z,1.50
2023-11-09T01:32:59.599Z,1.75
2023-11-09T01:35:26.100Z,2.30
2023-11-09T01:37:52.537Z,2.60
2023-11-09T01:40:19.656Z,1.50
2023-11-09T01:42:46.098Z,2.22
2023-11-09T01:45:12.498Z,2.25
2023-11-09T01:47:39.024Z,2.15
2023-11-09T01:50:06.834Z,1.88
2023-11-09T01:52:34.721Z,2.00
2023-11-09T01:55:02.670Z,2.35
2023-11-09T01:57:30.116Z,2.45
2023-11-09T01:59:56.823Z,3.38
2023-11-09T02:02:23.795Z,1.75
2023-11-09T02:04:50.832Z,1.60
2023-11-09T02:07:19.165Z,1.67
2023-11-09T02:12:32.710Z,2.05
2023-11-09T02:14:59.167Z,1.52
2023-11-09T02:17:25.831Z,1.50
2023-11-09T02:19:52.554Z,2.67
2023-11-09T02:22:19.204Z,2.88
2023-11-09T02:24:48.359Z,1.92
2023-11-09T02:27:14.808Z,1.92
2023-11-09T02:29:42.947Z,2.50
2023-11-09T02:32:09.531Z,3.55
2023-11-09T02:34:38.754Z,3.45
2023-11-09T02:37:09.355Z,1.80
2023-11-09T02:39:35.844Z,3.28
2023-11-09T02:42:03.509Z,2.10
2023-11-09T02:44:30.382Z,2.63
2023-11-09T02:46:56.952Z,2.47
2023-11-09T02:49:23.562Z,2.60
2023-11-09T02:51:50.054Z,3.30
2023-11-09T02:54:16.554Z,4.93
2023-11-09T02:56:43.027Z,2.20
2023-11-09T02:59:09.447Z,3.42
2023-11-09T03:01:36.846Z,2.20
2023-11-09T03:04:04.343Z,2.65
2023-11-09T03:06:30.827Z,2.40
2023-11-09T03:08:57.890Z,2.35
2023-11-09T03:11:24.571Z,4.22
2023-11-09T03:13:51.292Z,2.53
2023-11-09T03:16:18.424Z,3.58
2023-11-09T03:18:45.707Z,2.63
2023-11-09T03:21:12.214Z,3.63
2023-11-09T03:23:38.609Z,3.85
2023-11-09T03:26:08.529Z,3.85
2023-11-09T03:28:35.156Z,3.42
2023-11-09T03:31:05.059Z,3.25
2023-11-09T03:33:32.931Z,3.78
2023-11-09T03:35:59.860Z,3.10
2023-11-09T03:38:26.276Z,3.20
2023-11-09T03:40:52.674Z,4.05
2023-11-09T03:43:19.283Z,4.13
2023-11-09T03:45:46.024Z,3.55
2023-11-09T03:48:13.223Z,3.47
2023-11-09T03:50:39.748Z,3.35
2023-11-09T03:53:06.178Z,3.60
2023-11-09T03:55:32.731Z,2.80
2023-11-09T03:57:59.389Z,4.35
2023-11-09T04:00:25.878Z,3.47
2023-11-09T04:02:52.337Z,4.50
2023-11-09T04:05:19.749Z,4.40
2023-11-09T04:07:46.337Z,4.95
2023-11-09T04:10:15.101Z,3.28
2023-11-09T04:12:41.635Z,3.28
2023-11-09T04:15:10.356Z,2.90
2023-11-09T04:17:37.033Z,3.58
2023-11-09T04:20:05.275Z,4.65
2023-11-09T04:22:31.779Z,4.25
2023-11-09T04:24:58.360Z,3.65
2023-11-09T04:27:24.804Z,3.55
2023-11-09T04:29:51.417Z,4.72
2023-11-09T04:32:20.718Z,4.53
2023-11-09T04:34:47.601Z,3.47
2023-11-09T04:37:14.485Z,6.15
2023-11-09T04:39:47.619Z,3.78
2023-11-09T04:42:20.113Z,3.40
2023-11-09T04:44:47.620Z,4.07
2023-11-09T04:47:15.703Z,4.43
2023-11-09T04:49:48.058Z,3.50
2023-11-09T04:52:16.294Z,3.10
2023-11-09T04:54:58.400Z,3.42
2023-11-09T04:57:46.805Z,3.47
2023-11-09T05:00:33.247Z,4.53
2023-11-09T05:03:17.979Z,5.13
2023-11-09T05:06:08.944Z,3.22
2023-11-09T05:08:35.397Z,5.72
2023-11-09T05:11:02.117Z,4.63
2023-11-09T05:13:28.588Z,3.22
2023-11-09T05:15:55.045Z,3.60
2023-11-09T05:18:21.648Z,4.05
2023-11-09T05:20:51.883Z,3.30
2023-11-09T05:23:19.648Z,4.05
2023-11-09T05:25:46.131Z,2.80
2023-11-09T05:28:12.675Z,3.33
2023-11-09T05:30:39.610Z,4.32
2023-11-09T05:33:07.103Z,2.63
2023-11-09T05:35:33.756Z,2.40
2023-11-09T05:38:00.574Z,2.60
2023-11-09T05:40:27.818Z,3.38
2023-11-09T05:42:54.504Z,6.60
2023-11-09T05:45:20.923Z,3.70
2023-11-09T05:47:47.391Z,7.50
2023-11-09T05:50:13.925Z,5.95
2023-11-09T05:52:41.413Z,6.88
2023-11-09T05:55:08.473Z,5.63
2023-11-09T05:57:34.907Z,7.05
2023-11-09T06:00:01.449Z,7.57
2023-11-09T06:02:28.494Z,5.45
2023-11-09T06:04:55.015Z,10.18
2023-11-09T06:07:22.723Z,6.72
2023-11-09T06:09:49.586Z,6.90
2023-11-09T06:12:17.026Z,7.43
2023-11-09T06:14:44.719Z,9.52
2023-11-09T06:17:12.256Z,8.38
2023-11-09T06:19:38.851Z,6.47
2023-11-09T06:22:06.098Z,8.02
2023-11-09T06:24:32.603Z,7.60
2023-11-09T06:27:01.426Z,5.15
2023-11-09T06:29:29.196Z,7.90
2023-11-09T06:31:55.613Z,8.32
2023-11-09T06:34:22.109Z,6.47
2023-11-09T06:36:49.192Z,7.00
2023-11-09T06:39:18.037Z,10.50
2023-11-09T06:41:45.498Z,6.72
2023-11-09T06:44:13.234Z,5.28
2023-11-09T06:46:40.330Z,6.50
2023-11-09T06:49:07.806Z,7.68
2023-11-09T06:51:35.383Z,6.57
2023-11-09T06:54:05.879Z,7.18
2023-11-09T06:56:34.273Z,6.68
2023-11-09T06:59:01.375Z,5.15
2023-11-09T07:01:27.887Z,6.40
2023-11-09T07:03:54.398Z,8.10
2023-11-09T07:06:21.357Z,11.43
2023-11-09T07:08:47.848Z,8.95
2023-11-09T07:11:14.270Z,7.00
2023-11-09T07:13:40.693Z,8.45
2023-11-09T07:16:08.460Z,5.95
2023-11-09T07:18:36.163Z,7.70
2023-11-09T07:21:10.459Z,8.25
2023-11-09T07:23:38.866Z,7.47
2023-11-09T07:26:05.504Z,7.72
2023-11-09T07:28:32.994Z,8.15
2023-11-09T07:31:02.247Z,8.93
2023-11-09T07:33:29.140Z,7.50
2023-11-09T07:35:56.208Z,11.88
2023-11-09T07:38:22.607Z,9.82
2023-11-09T07:40:50.478Z,10.55
2023-11-09T07:43:17.427Z,9.50
2023-11-09T07:45:43.959Z,9.80
2023-11-09T07:48:10.699Z,9.40
2023-11-09T07:50:37.256Z,9.48
2023-11-09T07:53:03.676Z,11.57
2023-11-09T07:55:30.357Z,11.05
2023-11-09T07:58:04.184Z,11.95
2023-11-09T08:00:31.257Z,9.90
2023-11-09T08:02:59.337Z,12.98
2023-11-09T08:05:26.310Z,7.13
2023-11-09T08:07:55.866Z,12.45
2023-11-09T08:10:25.342Z,8.55
2023-11-09T08:12:53.476Z,15.65
2023-11-09T08:15:20.276Z,12.35
2023-11-09T08:17:48.717Z,16.65
2023-11-09T08:20:16.481Z,10.45
2023-11-09T08:22:48.111Z,9.05
2023-11-09T08:25:15.914Z,11.88
2023-11-09T08:27:43.146Z,13.70
2023-11-09T08:30:13.380Z,10.18
2023-11-09T08:32:40.352Z,10.75
2023-11-09T08:35:14.308Z,11.07
2023-11-09T08:37:42.413Z,13.63
2023-11-09T08:40:17.851Z,10.05
2023-11-09T08:42:50.862Z,10.55
2023-11-09T08:45:22.725Z,10.60
2023-11-09T08:47:50.785Z,10.30
2023-11-09T08:50:18.029Z,8.68
2023-11-09T08:52:45.576Z,11.48
2023-11-09T08:55:13.148Z,11.82
2023-11-09T08:57:40.987Z,14.50
2023-11-09T09:00:12.986Z,12.45
2023-11-09T09:05:17.441Z,12.45
2023-11-09T09:07:43.973Z,7.85
2023-11-09T09:10:16.776Z,7.35
2023-11-09T09:12:45.108Z,9.25
2023-11-09T09:15:17.127Z,14.88
2023-11-09T09:17:47.897Z,12.27
2023-11-09T09:20:16.851Z,11.23
2023-11-09T09:22:44.748Z,14.15
2023-11-09T09:25:15.658Z,12.15
2023-11-09T09:27:43.521Z,11.70
2023-11-09T09:30:18.959Z,16.60
2023-11-09T09:32:52.539Z,11.73
2023-11-09T09:35:29.631Z,11.98
2023-11-09T09:38:03.168Z,12.10
2023-11-09T09:40:40.203Z,9.00
2023-11-09T09:43:15.722Z,14.95
2023-11-09T09:45:42.665Z,13.07
2023-11-09T09:48:10.839Z,13.60
2023-11-09T09:50:40.245Z,11.35
2023-11-09T09:53:10.664Z,14.00
2023-11-09T09:55:38.660Z,14.45
2023-11-09T09:58:09.688Z,15.05
2023-11-09T10:00:37.996Z,13.93
2023-11-09T10:03:08.135Z,13.38
2023-11-09T10:05:37.065Z,11.50
2023-11-09T10:08:14.284Z,15.48
2023-11-09T10:10:49.680Z,16.75
2023-11-09T10:13:17.150Z,9.98
2023-11-09T10:15:47.426Z,17.95
2023-11-09T10:18:14.364Z,15.85
2023-11-09T10:20:43.914Z,15.95
2023-11-09T10:23:15.337Z,14.50
2023-11-09T10:25:42.782Z,15.90
2023-11-09T10:28:12.637Z,13.90
2023-11-09T10:30:42.383Z,13.68
2023-11-09T10:33:10.690Z,14.48
2023-11-09T10:35:40.816Z,9.88
2023-11-09T10:38:13.434Z,16.58
2023-11-09T10:41:13.587Z,13.57
2023-11-09T10:43:34.662Z,14.77
2023-11-09T10:46:05.715Z,10.68
2023-11-09T10:48:36.313Z,10.57
2023-11-09T10:51:04.279Z,12.23
2023-11-09T10:53:33.585Z,12.65
2023-11-09T10:56:04.820Z,11.45
2023-11-09T10:58:34.570Z,13.38
2023-11-09T11:01:03.462Z,16.50
2023-11-09T11:03:34.663Z,11.40
2023-11-09T11:06:05.975Z,10.73
2023-11-09T11:08:39.643Z,14.00
2023-11-09T11:11:07.212Z,14.40
2023-11-09T11:13:36.365Z,10.10
2023-11-09T11:16:27.571Z,14.88
2023-11-09T11:19:08.142Z,12.45
2023-11-09T11:21:54.001Z,7.78
2023-11-09T11:24:59.565Z,10.00
2023-11-09T11:27:46.019Z,15.05
2023-11-09T11:30:39.674Z,10.43
2023-11-09T11:33:13.408Z,10.43
2023-11-09T11:35:45.315Z,8.27
2023-11-09T11:40:41.588Z,12.95
2023-11-09T11:43:09.288Z,10.43
2023-11-09T11:45:37.306Z,10.60
2023-11-09T11:48:08.392Z,12.98
2023-11-09T11:50:35.456Z,7.72
2023-11-09T11:53:03.241Z,11.38
2023-11-09T11:55:41.323Z,10.15
2023-11-09T11:58:08.315Z,7.70
2023-11-09T12:00:42.963Z,7.78
2023-11-09T12:03:10.880Z,8.50
2023-11-09T12:05:41.766Z,8.35
2023-11-09T12:08:15.458Z,8.63
2023-11-09T12:10:45.664Z,7.22
2023-11-09T12:13:12.562Z,8.20
2023-11-09T12:15:39.675Z,11.73
2023-11-09T12:18:08.857Z,11.40
2023-11-09T12:20:36.519Z,8.05
2023-11-09T12:23:07.513Z,6.90
2023-11-09T12:25:53.340Z,13.38
2023-11-09T12:28:20.677Z,8.90
2023-11-09T12:30:52.927Z,10.77
2023-11-09T12:33:20.362Z,9.20
2023-11-09T12:36:06.096Z,7.32
2023-11-09T12:38:34.708Z,5.70
2023-11-09T12:41:03.550Z,8.50
2023-11-09T12:43:40.713Z,7.30
2023-11-09T12:46:15.813Z,8.02
2023-11-09T12:48:53.421Z,6.63
2023-11-09T12:51:24.147Z,11.82
2023-11-09T12:53:53.964Z,6.60
2023-11-09T12:56:30.136Z,6.93
2023-11-09T12:59:02.094Z,7.95
2023-11-09T13:01:30.786Z,9.25
2023-11-09T13:03:58.365Z,7.93
2023-11-09T13:06:27.068Z,6.93
2023-11-09T13:09:06.049Z,7.65
2023-11-09T13:11:43.412Z,7.50
2023-11-09T13:14:17.454Z,11.95
2023-11-09T13:16:45.734Z,6.85
2023-11-09T13:19:21.283Z,7.00
2023-11-09T13:21:49.847Z,9.32
2023-11-09T13:24:16.284Z,10.70
2023-11-09T13:26:47.060Z,10.35
2023-11-09T13:29:15.663Z,11.48
2023-11-09T13:31:42.074Z,7.30
2023-11-09T13:34:09.050Z,9.52
2023-11-09T13:36:45.259Z,11.73
2023-11-09T13:39:14.566Z,11.30
2023-11-09T13:41:44.078Z,13.07
2023-11-09T13:44:13.044Z,10.18
2023-11-09T13:46:44.453Z,9.45
2023-11-09T13:49:16.759Z,10.25
2023-11-09T13:52:07.803Z,9.50
2023-11-09T13:54:47.849Z,11.32
2023-11-09T13:57:19.806Z,10.13
2023-11-09T14:02:35.048Z,8.07
2023-11-09T14:05:09.299Z,7.10
2023-11-09T14:07:41.343Z,15.23
2023-11-09T14:10:22.037Z,10.27
2023-11-09T14:12:51.909Z,8.82
2023-11-09T14:15:19.664Z,9.18
2023-11-09T14:17:51.079Z,12.27
2023-11-09T14:20:31.536Z,9.75
2023-11-09T14:23:01.016Z,8.70
2023-11-09T14:25:27.492Z,8.90
2023-11-09T14:27:54.395Z,9.68
2023-11-09T14:30:29.705Z,10.52
2023-11-09T14:32:56.971Z,8.80
2023-11-09T14:35:24.018Z,10.60
2023-11-09T14:37:54.055Z,10.93
2023-11-09T14:40:24.410Z,9.73
2023-11-09T14:43:03.685Z,9.35
2023-11-09T14:45:35.954Z,11.02
2023-11-09T14:48:04.142Z,8.20
2023-11-09T14:50:33.577Z,7.78
2023-11-09T14:53:08.997Z,7.50
2023-11-09T14:55:36.665Z,6.95
2023-11-09T14:58:08.737Z,9.57
2023-11-09T15:00:37.816Z,11.23
2023-11-09T15:03:09.085Z,7.55
2023-11-09T15:05:39.258Z,8.93
2023-11-09T15:08:07.550Z,7.40
2023-11-09T15:10:35.615Z,7.82
2023-11-09T15:13:02.482Z,10.05
2023-11-09T15:15:29.762Z,9.10
2023-11-09T15:18:00.235Z,8.32
2023-11-09T15:20:29.309Z,6.35
2023-11-09T15:23:00.926Z,12.90
2023-11-09T15:25:34.749Z,9.20
2023-11-09T15:28:02.675Z,9.48
2023-11-09T15:30:31.041Z,16.38
2023-11-09T15:32:59.108Z,7.65
2023-11-09T15:35:28.096Z,6.15
2023-11-09T15:38:01.141Z,10.80
2023-11-09T15:41:09.800Z,13.57
2023-11-09T15:43:15.339Z,8.23
2023-11-09T15:45:42.967Z,8.25
2023-11-09T15:48:09.671Z,6.50
2023-11-09T15:50:37.831Z,7.28
2023-11-09T15:53:05.069Z,10.25
2023-11-09T15:55:33.675Z,10.23
2023-11-09T15:58:10.756Z,6.88
2023-11-09T16:00:39.234Z,6.63
2023-11-09T16:03:06.880Z,9.07
2023-11-09T16:05:34.552Z,12.20
2023-11-09T16:08:06.328Z,8.55
2023-11-09T16:10:35.855Z,8.05
2023-11-09T16:13:02.682Z,8.25
2023-11-09T16:15:30.867Z,8.88
2023-11-09T16:17:57.585Z,6.50
2023-11-09T16:20:31.348Z,8.02
2023-11-09T16:22:58.780Z,7.78
2023-11-09T16:25:26.908Z,4.15
2023-11-09T16:27:56.248Z,6.00
2023-11-09T16:30:32.861Z,5.57
2023-11-09T16:33:03.568Z,8.40
2023-11-09T16:35:32.965Z,4.97
2023-11-09T16:37:59.567Z,5.30
2023-11-09T16:40:26.190Z,3.95
2023-11-09T16:42:53.697Z,4.18
2023-11-09T16:45:21.622Z,5.82
2023-11-09T16:47:48.338Z,6.03
2023-11-09T16:50:15.356Z,2.00
2023-11-09T16:52:42.105Z,4.68
2023-11-09T16:55:09.738Z,1.70
2023-11-09T16:57:55.102Z,2.83
2023-11-09T17:00:24.475Z,1.40
2023-11-09T17:02:51.616Z,1.90
2023-11-09T17:05:18.157Z,2.85
2023-11-09T17:07:46.571Z,1.10
2023-11-09T17:10:14.352Z,1.02
2023-11-09T17:12:41.952Z,2.65
2023-11-09T17:15:14.288Z,0.68
2023-11-09T17:20:13.670Z,0.70
2023-11-09T17:22:41.277Z,0.50
2023-11-09T17:25:09.543Z,1.70
2023-11-09T17:27:36.932Z,0.52
2023-11-09T17:30:09.512Z,3.42
2023-11-09T17:32:37.574Z,1.08
2023-11-09T17:35:04.515Z,1.58
2023-11-09T17:37:31.028Z,1.40
2023-11-09T17:39:58.600Z,0.63
2023-11-09T17:42:25.503Z,2.97
2023-11-09T17:44:51.970Z,1.10
2023-11-09T17:47:18.729Z,1.08
2023-11-09T17:49:45.476Z,1.08
2023-11-09T17:52:12.617Z,0.93
2023-11-09T17:54:39.512Z,1.35
2023-11-09T17:57:07.124Z,1.58
2023-11-09T17:59:33.525Z,1.77
2023-11-09T18:02:01.560Z,4.55
2023-11-09T18:04:28.202Z,2.30
2023-11-09T18:06:56.738Z,1.58
2023-11-09T18:09:25.197Z,1.25
2023-11-09T18:11:55.718Z,1.60
2023-11-09T18:14:24.207Z,3.25
2023-11-09T18:16:51.020Z,2.50
2023-11-09T18:19:17.789Z,2.85
2023-11-09T18:21:47.141Z,2.17
2023-11-09T18:24:15.012Z,2.45
2023-11-09T18:26:41.697Z,5.43
2023-11-09T18:29:08.940Z,4.15
2023-11-09T18:31:35.627Z,3.65
2023-11-09T18:34:02.129Z,3.75
2023-11-09T18:36:28.813Z,3.78
2023-11-09T18:38:55.549Z,3.63
2023-11-09T18:41:26.205Z,4.20
2023-11-09T18:43:55.083Z,5.25
2023-11-09T18:46:22.160Z,6.55
2023-11-09T18:48:48.658Z,12.23
2023-11-09T18:51:15.102Z,7.03
2023-11-09T18:53:41.854Z,5.78
2023-11-09T18:56:08.749Z,4.40
2023-11-09T18:58:35.850Z,6.15
2023-11-09T19:01:02.402Z,3.83
2023-11-09T19:05:58.501Z,3.20
2023-11-09T19:08:25.674Z,2.80
2023-11-09T19:10:52.869Z,3.70
2023-11-09T19:13:23.138Z,3.55
2023-11-09T19:15:51.932Z,5.10
2023-11-09T19:18:18.593Z,4.85
2023-11-09T19:23:25.078Z,2.75
2023-11-09T19:25:52.839Z,1.90
2023-11-09T19:28:19.510Z,2.30
2023-11-09T19:30:46.743Z,4.30
2023-11-09T19:33:13.462Z,3.17
2023-11-09T19:35:39.830Z,2.80
2023-11-09T19:38:06.238Z,3.22
2023-11-09T19:40:32.602Z,4.07
2023-11-09T19:42:59.413Z,3.78
2023-11-09T19:45:28.924Z,5.18
2023-11-09T19:47:56.042Z,5.65
2023-11-09T19:50:25.669Z,4.45
2023-11-09T19:52:52.180Z,3.13
2023-11-09T19:55:18.586Z,3.28
2023-11-09T19:57:45.045Z,2.28
2023-11-09T20:00:13.494Z,2.92
2023-11-09T20:02:40.125Z,3.25
2023-11-09T20:05:07.435Z,3.63
2023-11-09T20:07:33.831Z,4.85
2023-11-09T20:10:00.212Z,3.22
2023-11-09T20:12:26.845Z,4.07
2023-11-09T20:14:53.306Z,8.20
2023-11-09T20:17:19.719Z,6.05
2023-11-09T20:19:46.088Z,3.85
2023-11-09T20:22:12.508Z,3.70
2023-11-09T20:24:38.907Z,3.67
2023-11-09T20:27:14.396Z,5.53
2023-11-09T20:29:40.849Z,5.32
2023-11-09T20:32:11.385Z,5.35
2023-11-09T20:34:51.246Z,5.10
2023-11-09T20:37:18.529Z,4.57
2023-11-09T20:39:45.499Z,6.50
2023-11-09T20:42:14.365Z,7.93
2023-11-09T20:44:41.181Z,5.43
2023-11-09T20:47:08.154Z,6.07
2023-11-09T20:49:34.585Z,6.22
2023-11-09T20:52:01.322Z,5.25
2023-11-09T20:54:28.155Z,5.03
2023-11-09T20:56:54.615Z,5.28
2023-11-09T20:59:21.336Z,7.85
2023-11-09T21:01:47.754Z,5.80
2023-11-09T21:04:14.326Z,5.90
2023-11-09T21:06:42.223Z,4.43
2023-11-09T21:09:09.177Z,9.38
2023-11-09T21:11:35.696Z,6.75
2023-11-09T21:14:02.508Z,6.32
2023-11-09T21:16:29.054Z,5.32
2023-11-09T21:19:01.387Z,5.03
2023-11-09T21:23:56.771Z,4.15
2023-11-09T21:26:23.220Z,6.68
2023-11-09T21:28:55.218Z,5.38
2023-11-09T21:31:21.683Z,5.03
2023-11-09T21:33:48.359Z,6.18
2023-11-09T21:36:15.415Z,7.43
2023-11-09T21:38:42.621Z,5.97
2023-11-09T21:41:09.511Z,6.55
2023-11-09T21:43:35.956Z,5.68
2023-11-09T21:46:02.374Z,3.75
2023-11-09T21:48:28.847Z,5.32
2023-11-09T21:50:55.322Z,4.50
2023-11-09T21:53:21.762Z,5.25
2023-11-09T21:55:48.173Z,5.93
2023-11-09T21:58:14.602Z,4.68
2023-11-09T22:00:41.102Z,4.53
2023-11-09T22:03:07.742Z,4.32
2023-11-09T22:05:34.211Z,4.28
2023-11-09T22:08:02.949Z,4.35
2023-11-09T22:10:30.035Z,7.53
2023-11-09T22:12:57.054Z,4.32
2023-11-09T22:15:23.620Z,6.93
2023-11-09T22:17:50.069Z,3.25
2023-11-09T22:20:16.663Z,3.58
2023-11-09T22:22:45.160Z,5.15
2023-11-09T22:25:12.190Z,4.80
2023-11-09T22:27:38.639Z,2.50
2023-11-09T22:30:05.643Z,2.25
2023-11-09T22:32:32.356Z,2.85
2023-11-09T22:34:59.060Z,3.28
2023-11-09T22:37:25.487Z,3.63
2023-11-09T22:39:52.012Z,3.83
2023-11-09T22:42:18.462Z,4.00
2023-11-09T22:44:45.282Z,3.78
2023-11-09T22:47:11.868Z,4.28
2023-11-09T22:49:38.308Z,6.38
2023-11-09T22:52:08.193Z,3.78
2023-11-09T22:54:36.333Z,3.30
2023-11-09T22:57:06.924Z,8.23
2023-11-09T22:59:34.450Z,3.50
2023-11-09T23:02:01.251Z,4.82
2023-11-09T23:04:29.386Z,3.10
2023-11-09T23:06:55.932Z,3.03
2023-11-09T23:09:24.028Z,2.75
2023-11-09T23:11:52.007Z,2.80
2023-11-09T23:14:18.682Z,3.20
2023-11-09T23:16:45.994Z,5.05
2023-11-09T23:19:12.585Z,2.47
2023-11-09T23:21:40.262Z,4.22
2023-11-09T23:24:08.723Z,3.53
2023-11-09T23:26:35.210Z,1.58
2023-11-09T23:29:03.079Z,4.13
2023-11-09T23:31:29.558Z,3.10
2023-11-09T23:33:58.294Z,2.65
2023-11-09T23:36:26.204Z,1.88
2023-11-09T23:38:52.996Z,3.28
2023-11-09T23:41:19.723Z,4.45
2023-11-09T23:43:47.323Z,5.78
2023-11-09T23:46:13.955Z,2.22
2023-11-09T23:48:40.530Z,2.05
2023-11-09T23:51:07.530Z,1.50
2023-11-09T23:53:34.028Z,1.55
2023-11-09T23:56:00.492Z,2.30
2023-11-09T23:58:27.505Z,3.15
